Time;durP1;ratioP1;P1;durP2;ratioP2;P2;SDS_P1;SDS_P2;PMS_P1;PMS_P2;Temp;Humidity;BMP_temperature;BMP_pressure;BME280_temperature;BME280_humidity;BME280_pressure;Samples;Min_cycle;Max_cycle;Signal;HPM_P1;HPM_P2
2021/10/16 00:23:46;;;;;;;14.35;4.80;;;;;;;7.55;100.00;100630.13;21724301;78;99227;-87
2021/10/16 00:53:47;;;;;;;10.85;4.20;;;;;;;7.36;100.00;100636.84;21544161;79;99364;-90
2021/10/16 01:23:49;;;;;;;13.72;3.47;;;;;;;7.14;100.00;100659.30;21550116;79;99325;-88
2021/10/16 01:53:50;;;;;;;10.72;3.37;;;;;;;7.00;100.00;100671.78;21733045;79;99552;-87
2021/10/16 02:23:51;;;;;;;9.95;2.87;;;;;;;6.77;100.00;100675.59;21715771;79;99281;-88
2021/10/16 02:53:52;;;;;;;14.57;3.53;;;;;;;6.55;100.00;100691.72;21754134;79;99103;-89
2021/10/16 03:23:54;;;;;;;13.03;3.60;;;;;;;6.33;100.00;100703.90;21735334;80;99432;-89
2021/10/16 03:53:55;;;;;;;18.40;4.33;;;;;;;6.23;100.00;100728.17;21719318;79;99427;-91
2021/10/16 04:23:56;;;;;;;13.07;3.87;;;;;;;6.04;100.00;100757.40;21708493;79;99572;-89
2021/10/16 04:53:57;;;;;;;15.50;6.58;;;;;;;5.85;100.00;100782.28;21569780;80;99298;-89
2021/10/16 05:23:57;;;;;;;12.73;3.45;;;;;;;5.61;100.00;100779.41;21558828;80;100192;-90
2021/10/16 05:53:58;;;;;;;15.72;4.12;;;;;;;5.56;100.00;100804.21;21556545;80;99451;-89
2021/10/16 06:23:59;;;;;;;16.03;6.67;;;;;;;5.83;100.00;100847.37;21546606;80;99720;-89
2021/10/16 06:54:02;;;;;;;17.03;7.37;;;;;;;6.08;100.00;100900.96;21753571;80;99513;-90
2021/10/16 07:24:03;;;;;;;17.53;9.07;;;;;;;6.48;100.00;100931.52;21766086;79;99363;-87
2021/10/16 07:54:04;;;;;;;17.13;5.00;;;;;;;7.07;100.00;100945.66;21573246;80;99524;-88
2021/10/16 08:24:05;;;;;;;14.47;4.90;;;;;;;7.93;100.00;100978.93;21569891;80;99646;-87
2021/10/16 08:54:06;;;;;;;19.55;5.85;;;;;;;8.66;100.00;100996.75;21547489;80;99595;-88
2021/10/16 09:24:32;;;;;;;13.68;5.35;;;;;;;9.21;99.65;101013.17;21527979;80;99297;-86
2021/10/16 09:54:34;;;;;;;12.07;4.40;;;;;;;9.53;97.62;101021.05;21552609;79;99021;-85
2021/10/16 10:24:38;;;;;;;14.17;4.33;;;;;;;9.94;96.06;101043.84;21583593;80;99214;-84
2021/10/16 10:54:39;;;;;;;10.33;3.50;;;;;;;10.54;94.13;101046.56;21557484;80;99460;-86
2021/10/16 11:24:40;;;;;;;7.90;3.10;;;;;;;11.15;90.54;101023.40;21577914;80;99382;-86
2021/10/16 11:54:41;;;;;;;11.45;3.30;;;;;;;12.12;85.43;101023.44;21803605;79;99390;-87
2021/10/16 12:24:42;;;;;;;10.60;3.62;;;;;;;12.71;81.41;100992.25;21811229;79;99452;-87
2021/10/16 12:54:43;;;;;;;16.93;3.33;;;;;;;12.49;75.31;100985.66;21559740;79;99681;-86
2021/10/16 13:24:44;;;;;;;10.23;3.25;;;;;;;11.98;75.12;100983.22;21575150;79;198785;-86
2021/10/16 13:54:45;;;;;;;7.77;2.20;;;;;;;12.04;74.49;100969.31;21565701;80;99886;-87
2021/10/16 14:24:46;;;;;;;13.13;3.53;;;;;;;11.78;72.96;100980.36;21549057;80;99129;-87
2021/10/16 14:54:48;;;;;;;12.07;4.03;;;;;;;11.34;71.13;100975.10;21708701;79;99598;-86
2021/10/16 15:24:49;;;;;;;15.07;4.37;;;;;;;10.96;72.22;100982.11;21272346;81;1252566;-88
2021/10/16 15:54:49;;;;;;;19.42;7.10;;;;;;;10.85;76.75;100981.72;21561087;80;99749;-87
2021/10/16 16:24:50;;;;;;;12.55;5.12;;;;;;;10.68;77.92;100995.34;21486216;80;99859;-89
2021/10/16 16:54:51;;;;;;;15.03;5.17;;;;;;;10.07;80.04;100997.78;20934721;83;99495;-87
2021/10/16 17:24:52;;;;;;;59.63;27.03;;;;;;;9.33;82.39;101010.33;21706356;79;99225;-87
2021/10/16 17:54:54;;;;;;;32.60;17.00;;;;;;;8.57;84.68;101015.34;21526479;80;99309;-86
2021/10/16 18:24:55;;;;;;;31.77;16.53;;;;;;;7.81;86.67;101011.84;21496986;80;99606;-88
2021/10/16 18:54:56;;;;;;;38.43;16.37;;;;;;;7.40;88.69;101023.02;20973697;82;1751481;-88
2021/10/16 19:24:57;;;;;;;32.90;14.87;;;;;;;7.40;90.09;101028.48;21631973;78;99788;-88
2021/10/16 19:54:58;;;;;;;17.73;7.73;;;;;;;7.53;91.25;101028.16;21625873;80;99337;-88
2021/10/16 20:24:59;;;;;;;20.95;9.08;;;;;;;7.84;92.60;101041.28;21624996;80;98970;-91
2021/10/16 20:55:01;;;;;;;22.20;8.33;;;;;;;8.15;92.78;101030.51;21552644;79;99147;-90
2021/10/16 21:25:04;;;;;;;16.05;6.78;;;;;;;8.41;92.61;101023.48;20861047;80;144719;-90
2021/10/16 21:36:26;;;;;;;;;;;;;;;8.63;92.45;101020.80;7114234;78;176704;-92
2021/10/16 21:46:27;;;;;;;;;;;;;;;8.62;92.37;101016.45;7211236;79;90670;-91
2021/10/16 21:56:27;;;;;;;;;;;;;;;8.66;92.28;101013.22;7243401;78;84228;-92
2021/10/16 22:06:28;;;;;;;;;;;;;;;8.70;92.04;101011.38;7288210;79;84563;-91
2021/10/16 22:16:28;;;;;;;;;;;;;;;8.74;92.00;101021.33;7262912;79;85041;-92
2021/10/16 22:26:29;;;;;;;;;;;;;;;8.75;92.00;101014.69;7265544;78;84338;-90
2021/10/16 22:36:30;;;;;;;;;;;;;;;8.75;92.00;101010.57;7122012;80;84121;-90
2021/10/16 22:46:30;;;;;;;;;;;;;;;8.78;92.13;101011.81;7118422;81;84760;-89
2021/10/16 22:56:31;;;;;;;;;;;;;;;8.77;92.34;101016.49;7056542;81;84400;-90
2021/10/16 23:06:32;;;;;;;;;;;;;;;8.80;92.31;101017.74;7138415;80;83551;-91
2021/10/16 23:16:32;;;;;;;;;;;;;;;8.82;92.12;101014.06;7099148;81;84636;-90
2021/10/16 23:26:33;;;;;;;;;;;;;;;8.81;92.33;101013.28;7139801;81;84317;-90
2021/10/16 23:36:34;;;;;;;;;;;;;;;8.83;92.41;101019.80;7188465;80;83750;-90
2021/10/16 23:46:35;;;;;;;;;;;;;;;8.83;92.53;101012.94;7205349;80;140868;-90
2021/10/16 23:56:35;;;;;;;;;;;;;;;8.81;92.58;101020.14;7191341;79;85149;-90
